sensor_id;sensor_type;location;lat;lon;timestamp;pressure;altitude;pressure_sealevel;temperature;humidity
11053;BME280;55230;42.602;23.470;2022-11-15T00:01:57;93950.53;;;2.36;100.00
11053;BME280;55230;42.602;23.470;2022-11-15T00:04:24;94077.34;;;3.30;100.00
11053;BME280;55230;42.602;23.470;2022-11-15T00:06:50;94074.69;;;3.27;100.00
11053;BME280;55230;42.602;23.470;2022-11-15T00:09:17;94075.47;;;3.20;100.00
11053;BME280;55230;42.602;23.470;2022-11-15T00:11:44;94037.13;;;2.86;100.00
11053;BME280;55230;42.602;23.470;2022-11-15T00:14:11;94031.00;;;2.96;100.00
11053;BME280;55230;42.602;23.470;2022-11-15T00:16:39;93895.88;;;1.72;100.00
11053;BME280;55230;42.602;23.470;2022-11-15T00:19:05;94069.03;;;3.07;100.00
11053;BME280;55230;42.602;23.470;2022-11-15T00:21:32;94077.75;;;3.25;100.00
11053;BME280;55230;42.602;23.470;2022-11-15T00:23:59;94136.78;;;3.13;100.00
11053;BME280;55230;42.602;23.470;2022-11-15T00:26:26;93963.41;;;2.62;100.00
11053;BME280;55230;42.602;23.470;2022-11-15T00:28:53;94065.19;;;3.22;100.00
11053;BME280;55230;42.602;23.470;2022-11-15T00:31:19;94034.81;;;2.95;100.00
11053;BME280;55230;42.602;23.470;2022-11-15T00:33:47;93939.53;;;2.23;100.00
11053;BME280;55230;42.602;23.470;2022-11-15T00:36:14;93975.59;;;2.38;100.00
11053;BME280;55230;42.602;23.470;2022-11-15T00:38:41;94057.63;;;3.10;100.00
11053;BME280;55230;42.602;23.470;2022-11-15T00:41:08;94062.16;;;3.13;100.00
11053;BME280;55230;42.602;23.470;2022-11-15T00:43:35;93633.78;;;0.28;100.00
11053;BME280;55230;42.602;23.470;2022-11-15T00:46:02;94142.09;;;3.06;100.00
11053;BME280;55230;42.602;23.470;2022-11-15T00:48:29;93993.44;;;2.59;100.00
11053;BME280;55230;42.602;23.470;2022-11-15T00:50:58;94049.25;;;3.01;100.00
11053;BME280;55230;42.602;23.470;2022-11-15T00:53:25;94069.81;;;2.94;100.00
11053;BME280;55230;42.602;23.470;2022-11-15T00:55:51;94051.94;;;3.01;100.00
11053;BME280;55230;42.602;23.470;2022-11-15T00:58:18;93900.81;;;2.05;100.00
11053;BME280;55230;42.602;23.470;2022-11-15T01:00:45;94042.06;;;2.98;100.00
11053;BME280;55230;42.602;23.470;2022-11-15T01:03:12;93463.72;;;-0.90;100.00
11053;BME280;55230;42.602;23.470;2022-11-15T01:05:39;94046.63;;;2.91;100.00
11053;BME280;55230;42.602;23.470;2022-11-15T01:08:12;94013.63;;;2.50;100.00
11053;BME280;55230;42.602;23.470;2022-11-15T01:10:39;94046.25;;;2.92;100.00
11053;BME280;55230;42.602;23.470;2022-11-15T01:13:05;94042.78;;;2.95;100.00
11053;BME280;55230;42.602;23.470;2022-11-15T01:15:32;93617.13;;;0.03;100.00
11053;BME280;55230;42.602;23.470;2022-11-15T01:17:59;93922.47;;;1.61;100.00
11053;BME280;55230;42.602;23.470;2022-11-15T01:20:26;93223.00;;;-2.67;100.00
11053;BME280;55230;42.602;23.470;2022-11-15T01:22:52;93495.47;;;-0.93;100.00
11053;BME280;55230;42.602;23.470;2022-11-15T01:25:21;94065.66;;;2.93;100.00
11053;BME280;55230;42.602;23.470;2022-11-15T01:27:47;94035.56;;;2.96;100.00
11053;BME280;55230;42.602;23.470;2022-11-15T01:30:15;94044.38;;;2.75;100.00
11053;BME280;55230;42.602;23.470;2022-11-15T01:32:41;94132.25;;;2.93;100.00
11053;BME280;55230;42.602;23.470;2022-11-15T01:35:08;94029.50;;;2.88;100.00
11053;BME280;55230;42.602;23.470;2022-11-15T01:37:35;94025.78;;;2.33;100.00
11053;BME280;55230;42.602;23.470;2022-11-15T01:40:02;93319.44;;;-2.08;100.00
11053;BME280;55230;42.602;23.470;2022-11-15T01:42:30;94048.50;;;2.97;100.00
11053;BME280;55230;42.602;23.470;2022-11-15T01:44:57;94045.09;;;2.97;100.00
11053;BME280;55230;42.602;23.470;2022-11-15T01:47:26;93959.25;;;2.33;100.00
11053;BME280;55230;42.602;23.470;2022-11-15T01:49:57;94037.47;;;2.88;100.00
11053;BME280;55230;42.602;23.470;2022-11-15T01:52:28;94042.81;;;2.88;100.00
11053;BME280;55230;42.602;23.470;2022-11-15T01:55:00;93488.28;;;-0.89;100.00
11053;BME280;55230;42.602;23.470;2022-11-15T01:57:28;93944.47;;;2.21;100.00
11053;BME280;55230;42.602;23.470;2022-11-15T01:59:57;93714.91;;;0.57;100.00
11053;BME280;55230;42.602;23.470;2022-11-15T02:02:24;94056.91;;;2.78;100.00
11053;BME280;55230;42.602;23.470;2022-11-15T02:04:51;93994.59;;;2.48;100.00
11053;BME280;55230;42.602;23.470;2022-11-15T02:07:19;94017.78;;;2.61;100.00
11053;BME280;55230;42.602;23.470;2022-11-15T02:09:46;94032.56;;;2.76;100.00
11053;BME280;55230;42.602;23.470;2022-11-15T02:12:16;94052.34;;;2.82;100.00
11053;BME280;55230;42.602;23.470;2022-11-15T02:14:46;93704.66;;;0.49;100.00
11053;BME280;55230;42.602;23.470;2022-11-15T02:17:29;94029.56;;;2.74;100.00
11053;BME280;55230;42.602;23.470;2022-11-15T02:20:18;93753.97;;;1.02;100.00
11053;BME280;55230;42.602;23.470;2022-11-15T02:23:05;94027.63;;;2.68;100.00
11053;BME280;55230;42.602;23.470;2022-11-15T02:25:40;94031.84;;;2.58;100.00
11053;BME280;55230;42.602;23.470;2022-11-15T02:28:47;94024.97;;;2.64;100.00
11053;BME280;55230;42.602;23.470;2022-11-15T02:31:26;94018.53;;;2.55;100.00
11053;BME280;55230;42.602;23.470;2022-11-15T02:34:02;93962.31;;;2.17;100.00
11053;BME280;55230;42.602;23.470;2022-11-15T02:36:37;94018.53;;;2.65;100.00
11053;BME280;55230;42.602;23.470;2022-11-15T02:39:10;94022.72;;;2.52;100.00
11053;BME280;55230;42.602;23.470;2022-11-15T02:41:45;93886.75;;;1.66;100.00
11053;BME280;55230;42.602;23.470;2022-11-15T02:44:17;93392.84;;;-1.60;100.00
11053;BME280;55230;42.602;23.470;2022-11-15T02:46:51;94016.66;;;2.62;100.00
11053;BME280;55230;42.602;23.470;2022-11-15T02:49:37;94013.22;;;2.65;100.00
11053;BME280;55230;42.602;23.470;2022-11-15T02:52:06;94017.38;;;2.59;100.00
11053;BME280;55230;42.602;23.470;2022-11-15T02:54:33;94021.97;;;2.69;100.00
11053;BME280;55230;42.602;23.470;2022-11-15T02:57:02;93926.25;;;1.99;100.00
11053;BME280;55230;42.602;23.470;2022-11-15T02:59:57;94028.81;;;2.63;100.00
11053;BME280;55230;42.602;23.470;2022-11-15T03:02:40;93971.06;;;2.25;100.00
11053;BME280;55230;42.602;23.470;2022-11-15T03:05:15;94002.22;;;2.35;100.00
11053;BME280;55230;42.602;23.470;2022-11-15T03:07:51;94023.47;;;2.63;100.00
11053;BME280;55230;42.602;23.470;2022-11-15T03:10:23;93972.22;;;2.10;100.00
11053;BME280;55230;42.602;23.470;2022-11-15T03:12:55;93982.47;;;2.15;100.00
11053;BME280;55230;42.602;23.470;2022-11-15T03:15:27;94027.31;;;2.52;100.00
11053;BME280;55230;42.602;23.470;2022-11-15T03:17:59;94019.69;;;2.57;100.00
11053;BME280;55230;42.602;23.470;2022-11-15T03:20:27;94029.19;;;2.55;100.00
11053;BME280;55230;42.602;23.470;2022-11-15T03:23:00;94016.66;;;2.55;100.00
11053;BME280;55230;42.602;23.470;2022-11-15T03:25:28;94028.81;;;2.63;100.00
11053;BME280;55230;42.602;23.470;2022-11-15T03:27:58;94036.41;;;2.61;100.00
11053;BME280;55230;42.602;23.470;2022-11-15T03:30:28;93851.88;;;1.46;100.00
11053;BME280;55230;42.602;23.470;2022-11-15T03:32:57;93792.63;;;0.75;100.00
11053;BME280;55230;42.602;23.470;2022-11-15T03:35:29;93743.72;;;0.76;100.00
11053;BME280;55230;42.602;23.470;2022-11-15T03:38:00;94010.56;;;2.51;100.00
11053;BME280;55230;42.602;23.470;2022-11-15T03:40:37;94009.06;;;2.32;100.00
11053;BME280;55230;42.602;23.470;2022-11-15T03:43:11;94007.56;;;2.10;100.00
11053;BME280;55230;42.602;23.470;2022-11-15T03:45:44;94002.22;;;1.82;100.00
11053;BME280;55230;42.602;23.470;2022-11-15T03:48:18;93928.91;;;1.43;100.00
11053;BME280;55230;42.602;23.470;2022-11-15T03:50:47;93993.88;;;1.84;100.00
11053;BME280;55230;42.602;23.470;2022-11-15T03:53:14;93998.03;;;1.88;100.00
11053;BME280;55230;42.602;23.470;2022-11-15T03:55:41;93977.81;;;1.13;100.00
11053;BME280;55230;42.602;23.470;2022-11-15T03:58:08;93999.19;;;1.91;100.00
11053;BME280;55230;42.602;23.470;2022-11-15T04:00:35;93853.72;;;0.96;100.00
11053;BME280;55230;42.602;23.470;2022-11-15T04:03:02;93990.81;;;1.75;100.00
11053;BME280;55230;42.602;23.470;2022-11-15T04:05:30;93972.53;;;1.42;100.00
11053;BME280;55230;42.602;23.470;2022-11-15T04:07:57;93995.38;;;1.60;100.00
11053;BME280;55230;42.602;23.470;2022-11-15T04:10:24;93921.31;;;1.34;100.00
11053;BME280;55230;42.602;23.470;2022-11-15T04:12:50;93986.28;;;1.82;100.00
11053;BME280;55230;42.602;23.470;2022-11-15T04:15:18;93894.34;;;1.14;100.00
11053;BME280;55230;42.602;23.470;2022-11-15T04:17:48;93974.88;;;1.82;100.00
11053;BME280;55230;42.602;23.470;2022-11-15T04:20:17;94003.34;;;1.78;100.00
11053;BME280;55230;42.602;23.470;2022-11-15T04:23:06;93973.34;;;1.67;100.00
11053;BME280;55230;42.602;23.470;2022-11-15T04:25:51;93964.22;;;1.68;100.00
11053;BME280;55230;42.602;23.470;2022-11-15T04:28:19;93662.38;;;-0.55;100.00
11053;BME280;55230;42.602;23.470;2022-11-15T04:30:46;93674.88;;;-0.55;100.00
11053;BME280;55230;42.602;23.470;2022-11-15T04:33:13;93945.94;;;1.21;100.00
11053;BME280;55230;42.602;23.470;2022-11-15T04:35:40;93975.25;;;1.66;100.00
11053;BME280;55230;42.602;23.470;2022-11-15T04:38:10;93885.94;;;0.84;100.00
11053;BME280;55230;42.602;23.470;2022-11-15T04:40:37;93962.34;;;1.79;100.00
11053;BME280;55230;42.602;23.470;2022-11-15T04:43:04;93897.78;;;1.33;100.00
11053;BME280;55230;42.602;23.470;2022-11-15T04:45:31;93829.66;;;0.37;100.00
11053;BME280;55230;42.602;23.470;2022-11-15T04:47:58;93315.06;;;-2.52;100.00
11053;BME280;55230;42.602;23.470;2022-11-15T04:50:25;93971.06;;;1.90;100.00
11053;BME280;55230;42.602;23.470;2022-11-15T04:52:53;93975.66;;;1.93;100.00
11053;BME280;55230;42.602;23.470;2022-11-15T04:55:21;93857.16;;;1.07;100.00
11053;BME280;55230;42.602;23.470;2022-11-15T04:57:57;93970.34;;;1.93;100.00
11053;BME280;55230;42.602;23.470;2022-11-15T05:00:24;93975.66;;;2.00;100.00
11053;BME280;55230;42.602;23.470;2022-11-15T05:02:51;93831.34;;;1.04;100.00
11053;BME280;55230;42.602;23.470;2022-11-15T05:05:35;93996.53;;;1.80;100.00
11053;BME280;55230;42.602;23.470;2022-11-15T05:08:02;93977.16;;;2.04;100.00
11053;BME280;55230;42.602;23.470;2022-11-15T05:10:31;93911.06;;;1.54;100.00
11053;BME280;55230;42.602;23.470;2022-11-15T05:12:58;93782.78;;;0.72;100.00
11053;BME280;55230;42.602;23.470;2022-11-15T05:15:28;94018.22;;;2.10;100.00
11053;BME280;55230;42.602;23.470;2022-11-15T05:17:57;93985.53;;;1.92;100.00
11053;BME280;55230;42.602;23.470;2022-11-15T05:20:24;93985.91;;;2.19;100.00
11053;BME280;55230;42.602;23.470;2022-11-15T05:22:52;93984.75;;;2.13;100.00
11053;BME280;55230;42.602;23.470;2022-11-15T05:25:19;93213.84;;;-2.87;100.00
11053;BME280;55230;42.602;23.470;2022-11-15T05:27:47;93901.22;;;1.75;100.00
11053;BME280;55230;42.602;23.470;2022-11-15T05:30:15;94000.31;;;2.35;100.00
11053;BME280;55230;42.602;23.470;2022-11-15T05:32:42;94007.53;;;2.42;100.00
11053;BME280;55230;42.602;23.470;2022-11-15T05:35:17;93572.38;;;-0.44;100.00
11053;BME280;55230;42.602;23.470;2022-11-15T05:37:44;93564.81;;;-0.32;100.00
11053;BME280;55230;42.602;23.470;2022-11-15T05:40:11;93788.88;;;1.11;100.00
11053;BME280;55230;42.602;23.470;2022-11-15T05:42:38;93972.53;;;2.54;100.00
11053;BME280;55230;42.602;23.470;2022-11-15T05:45:08;93939.91;;;2.29;100.00
11053;BME280;55230;42.602;23.470;2022-11-15T05:47:36;93969.44;;;2.73;100.00
11053;BME280;55230;42.602;23.470;2022-11-15T05:50:05;93915.56;;;2.27;100.00
11053;BME280;55230;42.602;23.470;2022-11-15T05:52:35;93975.09;;;2.89;100.00
11053;BME280;55230;42.602;23.470;2022-11-15T05:55:04;93979.25;;;2.97;100.00
11053;BME280;55230;42.602;23.470;2022-11-15T05:57:33;93527.38;;;0.05;100.00
11053;BME280;55230;42.602;23.470;2022-11-15T06:00:00;93943.19;;;2.75;100.00
11053;BME280;55230;42.602;23.470;2022-11-15T06:02:29;93902.19;;;2.59;100.00
11053;BME280;55230;42.602;23.470;2022-11-15T06:04:56;93902.53;;;2.64;100.00
11053;BME280;55230;42.602;23.470;2022-11-15T06:07:23;93874.47;;;2.38;100.00
11053;BME280;55230;42.602;23.470;2022-11-15T06:09:49;93885.47;;;2.51;100.00
11053;BME280;55230;42.602;23.470;2022-11-15T06:12:16;93985.22;;;3.29;100.00
11053;BME280;55230;42.602;23.470;2022-11-15T06:14:43;93980.63;;;3.33;100.00
11053;BME280;55230;42.602;23.470;2022-11-15T06:17:10;93954.06;;;3.12;100.00
11053;BME280;55230;42.602;23.470;2022-11-15T06:19:38;93973.66;;;3.53;100.00
11053;BME280;55230;42.602;23.470;2022-11-15T06:22:05;93981.31;;;3.48;100.00
11053;BME280;55230;42.602;23.470;2022-11-15T06:24:32;93942.78;;;2.84;100.00
11053;BME280;55230;42.602;23.470;2022-11-15T06:26:59;93882.16;;;2.26;100.00
11053;BME280;55230;42.602;23.470;2022-11-15T06:29:25;93941.28;;;2.76;100.00
11053;BME280;55230;42.602;23.470;2022-11-15T06:31:52;93274.66;;;-1.70;100.00
11053;BME280;55230;42.602;23.470;2022-11-15T06:34:19;93913.94;;;2.68;100.00
11053;BME280;55230;42.602;23.470;2022-11-15T06:36:47;93986.34;;;3.28;100.00
11053;BME280;55230;42.602;23.470;2022-11-15T06:39:14;93792.50;;;2.09;100.00
11053;BME280;55230;42.602;23.470;2022-11-15T06:41:41;93916.81;;;3.09;100.00
11053;BME280;55230;42.602;23.470;2022-11-15T06:44:07;93986.97;;;3.57;100.00
11053;BME280;55230;42.602;23.470;2022-11-15T06:46:34;93792.41;;;2.30;100.00
11053;BME280;55230;42.602;23.470;2022-11-15T06:49:01;93984.56;;;3.77;100.00
11053;BME280;55230;42.602;23.470;2022-11-15T06:51:28;93908.25;;;3.35;100.00
11053;BME280;55230;42.602;23.470;2022-11-15T06:53:56;93979.59;;;3.79;100.00
11053;BME280;55230;42.602;23.470;2022-11-15T06:56:23;93928.16;;;3.16;100.00
11053;BME280;55230;42.602;23.470;2022-11-15T06:58:49;93441.81;;;-0.48;100.00
11053;BME280;55230;42.602;23.470;2022-11-15T07:01:16;93984.88;;;3.86;100.00
11053;BME280;55230;42.602;23.470;2022-11-15T07:03:43;93509.09;;;0.70;100.00
11053;BME280;55230;42.602;23.470;2022-11-15T07:06:11;93990.16;;;3.93;100.00
11053;BME280;55230;42.602;23.470;2022-11-15T07:08:38;93883.84;;;3.43;100.00
11053;BME280;55230;42.602;23.470;2022-11-15T07:11:08;93338.84;;;-0.04;100.00
11053;BME280;55230;42.602;23.470;2022-11-15T07:13:36;93926.88;;;3.97;100.00
11053;BME280;55230;42.602;23.470;2022-11-15T07:16:04;93982.13;;;4.44;100.00
11053;BME280;55230;42.602;23.470;2022-11-15T07:18:33;93944.69;;;4.10;100.00
11053;BME280;55230;42.602;23.470;2022-11-15T07:21:02;93615.47;;;2.08;100.00
11053;BME280;55230;42.602;23.470;2022-11-15T07:23:29;93923.25;;;4.17;100.00
11053;BME280;55230;42.602;23.470;2022-11-15T07:25:56;93974.31;;;4.63;100.00
11053;BME280;55230;42.602;23.470;2022-11-15T07:28:25;93895.75;;;4.24;100.00
11053;BME280;55230;42.602;23.470;2022-11-15T07:30:52;93393.66;;;1.06;100.00
11053;BME280;55230;42.602;23.470;2022-11-15T07:33:19;93961.84;;;4.87;100.00
11053;BME280;55230;42.602;23.470;2022-11-15T07:35:46;93971.06;;;3.98;100.00
11053;BME280;55230;42.602;23.470;2022-11-15T07:38:14;93969.00;;;3.65;100.00
11053;BME280;55230;42.602;23.470;2022-11-15T07:40:41;93957.78;;;3.32;100.00
11053;BME280;55230;42.602;23.470;2022-11-15T07:43:08;93967.59;;;3.49;100.00
11053;BME280;55230;42.602;23.470;2022-11-15T07:45:41;93972.06;;;3.67;100.00
11053;BME280;55230;42.602;23.470;2022-11-15T07:48:08;93970.53;;;3.66;100.00
11053;BME280;55230;42.602;23.470;2022-11-15T07:50:35;93948.56;;;3.47;100.00
11053;BME280;55230;42.602;23.470;2022-11-15T07:53:02;93957.66;;;3.53;100.00
11053;BME280;55230;42.602;23.470;2022-11-15T07:55:29;93904.06;;;3.37;100.00
11053;BME280;55230;42.602;23.470;2022-11-15T07:58:00;93968.41;;;3.98;100.00
11053;BME280;55230;42.602;23.470;2022-11-15T08:00:28;93967.94;;;4.10;100.00
11053;BME280;55230;42.602;23.470;2022-11-15T08:03:03;93919.44;;;3.74;100.00
11053;BME280;55230;42.602;23.470;2022-11-15T08:05:30;93979.19;;;3.80;100.00
11053;BME280;55230;42.602;23.470;2022-11-15T08:07:57;93909.09;;;3.25;100.00
11053;BME280;55230;42.602;23.470;2022-11-15T08:10:24;93942.88;;;3.38;100.00
11053;BME280;55230;42.602;23.470;2022-11-15T08:12:57;93872.63;;;3.15;100.00
11053;BME280;55230;42.602;23.470;2022-11-15T08:15:24;93960.53;;;3.77;100.00
11053;BME280;55230;42.602;23.470;2022-11-15T08:17:54;93886.75;;;3.08;100.00
11053;BME280;55230;42.602;23.470;2022-11-15T08:20:22;93961.38;;;3.70;100.00
11053;BME280;55230;42.602;23.470;2022-11-15T08:22:49;93940.50;;;3.54;100.00
11053;BME280;55230;42.602;23.470;2022-11-15T08:25:16;93906.00;;;3.30;100.00
11053;BME280;55230;42.602;23.470;2022-11-15T08:27:43;93799.03;;;2.73;100.00
11053;BME280;55230;42.602;23.470;2022-11-15T08:30:11;93956.47;;;4.13;100.00
11053;BME280;55230;42.602;23.470;2022-11-15T08:32:38;93983.88;;;4.17;100.00
11053;BME280;55230;42.602;23.470;2022-11-15T08:35:06;93983.34;;;4.73;100.00
11053;BME280;55230;42.602;23.470;2022-11-15T08:37:35;93958.97;;;4.71;100.00
11053;BME280;55230;42.602;23.470;2022-11-15T08:40:02;93988.97;;;4.48;100.00
11053;BME280;55230;42.602;23.470;2022-11-15T08:42:29;93961.88;;;4.02;100.00
11053;BME280;55230;42.602;23.470;2022-11-15T08:44:56;93952.00;;;3.99;100.00
11053;BME280;55230;42.602;23.470;2022-11-15T08:47:22;93770.19;;;2.65;100.00
11053;BME280;55230;42.602;23.470;2022-11-15T08:49:49;93895.69;;;3.35;100.00
11053;BME280;55230;42.602;23.470;2022-11-15T08:52:16;93833.06;;;3.10;100.00
11053;BME280;55230;42.602;23.470;2022-11-15T08:54:44;93868.59;;;3.47;100.00
11053;BME280;55230;42.602;23.470;2022-11-15T08:57:11;93590.72;;;1.46;100.00
11053;BME280;55230;42.602;23.470;2022-11-15T08:59:38;93791.84;;;3.25;100.00
11053;BME280;55230;42.602;23.470;2022-11-15T09:02:05;93938.88;;;4.56;100.00
11053;BME280;55230;42.602;23.470;2022-11-15T09:04:32;93931.69;;;4.53;100.00
11053;BME280;55230;42.602;23.470;2022-11-15T09:06:59;93931.09;;;4.72;100.00
11053;BME280;55230;42.602;23.470;2022-11-15T09:09:25;93928.09;;;5.00;100.00
11053;BME280;55230;42.602;23.470;2022-11-15T09:11:54;93925.97;;;4.88;100.00
11053;BME280;55230;42.602;23.470;2022-11-15T09:14:20;93916.44;;;4.84;100.00
11053;BME280;55230;42.602;23.470;2022-11-15T09:16:47;93845.84;;;4.54;100.00
11053;BME280;55230;42.602;23.470;2022-11-15T09:19:14;93912.38;;;5.06;100.00
11053;BME280;55230;42.602;23.470;2022-11-15T09:21:40;93907.28;;;5.15;100.00
11053;BME280;55230;42.602;23.470;2022-11-15T09:24:07;93909.28;;;5.64;100.00
11053;BME280;55230;42.602;23.470;2022-11-15T09:26:34;93905.00;;;5.43;100.00
11053;BME280;55230;42.602;23.470;2022-11-15T09:29:02;93906.41;;;5.78;100.00
11053;BME280;55230;42.602;23.470;2022-11-15T09:31:29;93835.59;;;5.59;100.00
11053;BME280;55230;42.602;23.470;2022-11-15T09:33:56;93909.47;;;6.26;100.00
11053;BME280;55230;42.602;23.470;2022-11-15T09:36:23;93903.66;;;6.08;100.00
11053;BME280;55230;42.602;23.470;2022-11-15T09:38:50;93802.16;;;5.48;100.00
11053;BME280;55230;42.602;23.470;2022-11-15T09:41:31;93888.78;;;6.27;100.00
11053;BME280;55230;42.602;23.470;2022-11-15T09:44:10;93892.88;;;5.88;100.00
11053;BME280;55230;42.602;23.470;2022-11-15T09:46:45;93886.38;;;5.90;100.00
11053;BME280;55230;42.602;23.470;2022-11-15T09:49:15;93878.53;;;6.22;100.00
11053;BME280;55230;42.602;23.470;2022-11-15T09:51:44;93878.19;;;6.20;100.00
11053;BME280;55230;42.602;23.470;2022-11-15T09:54:23;93871.88;;;5.87;100.00
11053;BME280;55230;42.602;23.470;2022-11-15T09:56:53;93878.22;;;5.70;100.00
11053;BME280;55230;42.602;23.470;2022-11-15T09:59:41;93788.53;;;4.89;100.00
11053;BME280;55230;42.602;23.470;2022-11-15T10:02:20;93741.28;;;4.29;100.00
11053;BME280;55230;42.602;23.470;2022-11-15T10:04:51;93802.16;;;4.98;100.00
11053;BME280;55230;42.602;23.470;2022-11-15T10:07:22;93501.47;;;2.88;100.00
11053;BME280;55230;42.602;23.470;2022-11-15T10:09:54;93801.38;;;4.98;100.00
11053;BME280;55230;42.602;23.470;2022-11-15T10:12:22;93438.59;;;2.97;100.00
11053;BME280;55230;42.602;23.470;2022-11-15T10:15:01;93766.75;;;5.40;100.00
11053;BME280;55230;42.602;23.470;2022-11-15T10:17:52;93845.56;;;5.59;100.00
11053;BME280;55230;42.602;23.470;2022-11-15T10:20:22;93702.63;;;4.37;100.00
11053;BME280;55230;42.602;23.470;2022-11-15T10:22:51;93885.88;;;5.18;100.00
11053;BME280;55230;42.602;23.470;2022-11-15T10:25:22;93531.34;;;3.02;100.00
11053;BME280;55230;42.602;23.470;2022-11-15T10:27:58;93822.16;;;5.13;100.00
11053;BME280;55230;42.602;23.470;2022-11-15T10:30:33;93836.78;;;5.58;100.00
11053;BME280;55230;42.602;23.470;2022-11-15T10:33:11;93841.09;;;5.49;100.00
11053;BME280;55230;42.602;23.470;2022-11-15T10:35:38;93834.91;;;5.55;100.00
11053;BME280;55230;42.602;23.470;2022-11-15T10:38:06;93826.78;;;5.85;100.00
11053;BME280;55230;42.602;23.470;2022-11-15T10:40:34;93833.97;;;5.65;100.00
11053;BME280;55230;42.602;23.470;2022-11-15T10:43:15;93827.09;;;5.64;100.00
11053;BME280;55230;42.602;23.470;2022-11-15T10:45:45;93815.72;;;5.60;100.00
11053;BME280;55230;42.602;23.470;2022-11-15T10:48:23;93801.94;;;5.62;100.00
11053;BME280;55230;42.602;23.470;2022-11-15T10:50:52;93798.28;;;5.99;100.00
11053;BME280;55230;42.602;23.470;2022-11-15T10:53:28;93806.06;;;6.32;100.00
11053;BME280;55230;42.602;23.470;2022-11-15T10:56:03;93471.28;;;3.85;100.00
11053;BME280;55230;42.602;23.470;2022-11-15T10:58:35;93791.28;;;6.05;100.00
11053;BME280;55230;42.602;23.470;2022-11-15T11:01:13;93781.06;;;6.19;100.00
11053;BME280;55230;42.602;23.470;2022-11-15T11:03:42;93707.66;;;5.77;100.00
11053;BME280;55230;42.602;23.470;2022-11-15T11:06:12;93723.34;;;5.75;100.00
11053;BME280;55230;42.602;23.470;2022-11-15T11:08:39;93504.88;;;4.51;100.00
11053;BME280;55230;42.602;23.470;2022-11-15T11:11:07;93770.41;;;6.55;100.00
11053;BME280;55230;42.602;23.470;2022-11-15T11:13:36;93430.66;;;4.43;100.00
11053;BME280;55230;42.602;23.470;2022-11-15T11:16:34;93763.16;;;7.23;100.00
11053;BME280;55230;42.602;23.470;2022-11-15T11:19:17;93755.81;;;7.43;100.00
11053;BME280;55230;42.602;23.470;2022-11-15T11:21:50;93746.91;;;7.46;100.00
11053;BME280;55230;42.602;23.470;2022-11-15T11:24:24;93744.88;;;7.18;100.00
11053;BME280;55230;42.602;23.470;2022-11-15T11:27:07;93577.75;;;6.12;100.00
11053;BME280;55230;42.602;23.470;2022-11-15T11:29:48;93612.47;;;6.32;100.00
11053;BME280;55230;42.602;23.470;2022-11-15T11:32:32;93729.44;;;7.70;100.00
11053;BME280;55230;42.602;23.470;2022-11-15T11:35:08;93602.13;;;6.98;100.00
11053;BME280;55230;42.602;23.470;2022-11-15T11:37:43;93715.59;;;7.72;100.00
11053;BME280;55230;42.602;23.470;2022-11-15T11:40:24;93612.72;;;6.73;100.00
11053;BME280;55230;42.602;23.470;2022-11-15T11:42:55;93718.75;;;7.06;100.00
11053;BME280;55230;42.602;23.470;2022-11-15T11:45:44;93684.72;;;6.87;100.00
11053;BME280;55230;42.602;23.470;2022-11-15T11:48:29;93615.44;;;6.85;100.00
11053;BME280;55230;42.602;23.470;2022-11-15T11:51:04;93699.47;;;7.43;100.00
11053;BME280;55230;42.602;23.470;2022-11-15T11:53:39;93695.53;;;7.16;100.00
11053;BME280;55230;42.602;23.470;2022-11-15T11:56:19;93474.75;;;5.84;100.00
11053;BME280;55230;42.602;23.470;2022-11-15T11:58:48;93698.34;;;7.85;100.00
11053;BME280;55230;42.602;23.470;2022-11-15T12:01:22;93542.16;;;6.92;100.00
11053;BME280;55230;42.602;23.470;2022-11-15T12:03:54;93486.72;;;6.44;100.00
11053;BME280;55230;42.602;23.470;2022-11-15T12:06:30;93380.66;;;5.54;100.00
11053;BME280;55230;42.602;23.470;2022-11-15T12:09:00;93720.16;;;7.59;100.00
11053;BME280;55230;42.602;23.470;2022-11-15T12:11:32;93672.66;;;7.72;100.00
11053;BME280;55230;42.602;23.470;2022-11-15T12:14:03;93670.28;;;7.45;100.00
11053;BME280;55230;42.602;23.470;2022-11-15T12:16:32;93677.66;;;7.57;100.00
11053;BME280;55230;42.602;23.470;2022-11-15T12:19:02;93664.31;;;7.82;100.00
11053;BME280;55230;42.602;23.470;2022-11-15T12:21:36;93670.94;;;8.35;100.00
11053;BME280;55230;42.602;23.470;2022-11-15T12:24:07;93660.19;;;8.48;100.00
11053;BME280;55230;42.602;23.470;2022-11-15T12:26:38;93267.41;;;5.60;100.00
11053;BME280;55230;42.602;23.470;2022-11-15T12:29:12;93646.13;;;8.69;100.00
11053;BME280;55230;42.602;23.470;2022-11-15T12:31:45;93638.13;;;9.03;100.00
11053;BME280;55230;42.602;23.470;2022-11-15T12:34:36;93666.00;;;9.09;100.00
11053;BME280;55230;42.602;23.470;2022-11-15T12:37:46;93635.59;;;9.33;100.00
11053;BME280;55230;42.602;23.470;2022-11-15T12:40:25;93638.78;;;9.07;100.00
11053;BME280;55230;42.602;23.470;2022-11-15T12:43:01;93578.84;;;8.35;100.00
11053;BME280;55230;42.602;23.470;2022-11-15T12:45:30;93634.28;;;8.66;100.00
11053;BME280;55230;42.602;23.470;2022-11-15T12:52:05;93623.22;;;8.64;100.00
11053;BME280;55230;42.602;23.470;2022-11-15T12:54:57;93628.06;;;8.57;100.00
11053;BME280;55230;42.602;23.470;2022-11-15T12:57:29;93591.28;;;8.29;100.00
11053;BME280;55230;42.602;23.470;2022-11-15T12:59:58;93580.53;;;8.29;100.00
11053;BME280;55230;42.602;23.470;2022-11-15T13:02:29;93624.06;;;8.86;100.00
11053;BME280;55230;42.602;23.470;2022-11-15T13:08:03;93211.75;;;6.54;100.00
11053;BME280;55230;42.602;23.470;2022-11-15T13:10:32;93613.53;;;9.60;100.00
11053;BME280;55230;42.602;23.470;2022-11-15T13:13:00;93621.94;;;9.62;100.00
11053;BME280;55230;42.602;23.470;2022-11-15T13:15:52;93605.63;;;9.78;100.00